Terminal Aerodrome Forecast
Issued by NWS

Home | Current Version | Previous Version | Graphics & Text | Print | Product List | Glossary On
Versions: 1 2 3 4 5 6 7 8 9 10 11 12 13 14 15 16 17 18 19 20 21 22 23 24
000
FTUS43 KLSX 191225 AAA
TAFSUS
TAF AMD
KSUS 191225Z 1912/2012 00000KT 2SM -RA BR OVC006
     FM191800 08004KT 4SM -SHRA BR OVC003
     FM192200 VRB03KT 6SM BR OVC003
     FM200400 VRB03KT 1SM BR OVC003
     FM200800 VRB03KT 1/2SM FG OVC003=

USA.gov is the U.S. government's official web portal to all federal, state and local government web resources and services.